sensor_id;sensor_type;location;lat;lon;timestamp;temperature;humidity
16116;DHT22;8162;47.104;15.432;2022-10-31T00:01:21;11.90;83.60
16116;DHT22;8162;47.104;15.432;2022-10-31T00:03:47;12.00;83.60
16116;DHT22;8162;47.104;15.432;2022-10-31T00:06:13;11.90;83.60
16116;DHT22;8162;47.104;15.432;2022-10-31T00:08:39;11.90;83.50
16116;DHT22;8162;47.104;15.432;2022-10-31T00:11:08;11.90;83.50
16116;DHT22;8162;47.104;15.432;2022-10-31T00:13:34;11.80;83.40
16116;DHT22;8162;47.104;15.432;2022-10-31T00:16:00;11.80;83.50
16116;DHT22;8162;47.104;15.432;2022-10-31T00:18:25;11.80;83.60
16116;DHT22;8162;47.104;15.432;2022-10-31T00:21:02;11.80;83.80
16116;DHT22;8162;47.104;15.432;2022-10-31T00:23:28;11.80;83.80
16116;DHT22;8162;47.104;15.432;2022-10-31T00:25:54;11.80;83.90
16116;DHT22;8162;47.104;15.432;2022-10-31T00:28:24;11.70;84.10
16116;DHT22;8162;47.104;15.432;2022-10-31T00:30:50;11.80;84.20
16116;DHT22;8162;47.104;15.432;2022-10-31T00:33:16;11.70;84.20
16116;DHT22;8162;47.104;15.432;2022-10-31T00:35:41;11.80;84.10
16116;DHT22;8162;47.104;15.432;2022-10-31T00:38:07;11.80;84.20
16116;DHT22;8162;47.104;15.432;2022-10-31T00:40:33;11.80;84.30
16116;DHT22;8162;47.104;15.432;2022-10-31T00:42:58;11.80;84.10
16116;DHT22;8162;47.104;15.432;2022-10-31T00:45:24;11.80;84.20
16116;DHT22;8162;47.104;15.432;2022-10-31T00:47:50;11.80;84.20
16116;DHT22;8162;47.104;15.432;2022-10-31T00:50:16;11.80;84.30
16116;DHT22;8162;47.104;15.432;2022-10-31T00:52:41;11.80;84.10
16116;DHT22;8162;47.104;15.432;2022-10-31T00:55:07;11.80;84.00
16116;DHT22;8162;47.104;15.432;2022-10-31T00:57:33;11.80;84.00
16116;DHT22;8162;47.104;15.432;2022-10-31T00:59:58;11.80;84.00
16116;DHT22;8162;47.104;15.432;2022-10-31T01:02:24;11.70;83.90
16116;DHT22;8162;47.104;15.432;2022-10-31T01:04:49;11.70;83.90
16116;DHT22;8162;47.104;15.432;2022-10-31T01:07:15;11.70;83.90
16116;DHT22;8162;47.104;15.432;2022-10-31T01:09:41;11.70;84.00
16116;DHT22;8162;47.104;15.432;2022-10-31T01:12:06;11.60;84.10
16116;DHT22;8162;47.104;15.432;2022-10-31T01:14:32;11.70;83.90
16116;DHT22;8162;47.104;15.432;2022-10-31T01:16:58;11.60;83.90
16116;DHT22;8162;47.104;15.432;2022-10-31T01:19:24;11.60;84.00
16116;DHT22;8162;47.104;15.432;2022-10-31T01:21:49;11.70;84.10
16116;DHT22;8162;47.104;15.432;2022-10-31T01:24:15;11.60;84.00
16116;DHT22;8162;47.104;15.432;2022-10-31T01:26:40;11.60;84.30
16116;DHT22;8162;47.104;15.432;2022-10-31T01:29:07;11.60;84.00
16116;DHT22;8162;47.104;15.432;2022-10-31T01:31:36;11.60;83.80
16116;DHT22;8162;47.104;15.432;2022-10-31T01:34:02;11.60;84.00
16116;DHT22;8162;47.104;15.432;2022-10-31T01:36:33;11.60;84.10
16116;DHT22;8162;47.104;15.432;2022-10-31T01:39:11;11.60;84.10
16116;DHT22;8162;47.104;15.432;2022-10-31T01:41:39;11.60;83.90
16116;DHT22;8162;47.104;15.432;2022-10-31T01:52:20;11.50;84.00
16116;DHT22;8162;47.104;15.432;2022-10-31T01:55:12;11.50;83.60
16116;DHT22;8162;47.104;15.432;2022-10-31T01:57:37;11.50;83.80
16116;DHT22;8162;47.104;15.432;2022-10-31T02:00:08;11.50;83.90
16116;DHT22;8162;47.104;15.432;2022-10-31T02:02:34;11.50;84.10
16116;DHT22;8162;47.104;15.432;2022-10-31T02:05:02;11.50;84.00
16116;DHT22;8162;47.104;15.432;2022-10-31T02:07:38;11.50;84.10
16116;DHT22;8162;47.104;15.432;2022-10-31T02:10:05;11.40;84.10
16116;DHT22;8162;47.104;15.432;2022-10-31T02:12:31;11.40;84.00
16116;DHT22;8162;47.104;15.432;2022-10-31T02:14:59;11.40;84.00
16116;DHT22;8162;47.104;15.432;2022-10-31T02:17:25;11.40;83.90
16116;DHT22;8162;47.104;15.432;2022-10-31T02:22:50;11.30;84.00
16116;DHT22;8162;47.104;15.432;2022-10-31T02:33:56;11.30;84.30
16116;DHT22;8162;47.104;15.432;2022-10-31T02:36:50;11.30;84.10
16116;DHT22;8162;47.104;15.432;2022-10-31T02:39:31;11.30;84.00
16116;DHT22;8162;47.104;15.432;2022-10-31T02:44:58;11.30;83.80
16116;DHT22;8162;47.104;15.432;2022-10-31T02:47:28;11.20;84.10
16116;DHT22;8162;47.104;15.432;2022-10-31T02:49:56;11.20;84.00
16116;DHT22;8162;47.104;15.432;2022-10-31T02:52:27;11.20;83.80
16116;DHT22;8162;47.104;15.432;2022-10-31T02:54:53;11.20;83.90
16116;DHT22;8162;47.104;15.432;2022-10-31T02:57:26;11.10;83.90
16116;DHT22;8162;47.104;15.432;2022-10-31T03:00:04;11.10;84.00
16116;DHT22;8162;47.104;15.432;2022-10-31T03:16:32;11.10;84.80
16116;DHT22;8162;47.104;15.432;2022-10-31T03:19:23;11.10;84.70
16116;DHT22;8162;47.104;15.432;2022-10-31T03:24:22;11.00;84.40
16116;DHT22;8162;47.104;15.432;2022-10-31T03:26:53;11.00;84.40
16116;DHT22;8162;47.104;15.432;2022-10-31T03:29:22;11.00;84.40
16116;DHT22;8162;47.104;15.432;2022-10-31T03:31:55;11.00;84.70
16116;DHT22;8162;47.104;15.432;2022-10-31T03:34:22;11.00;84.30
16116;DHT22;8162;47.104;15.432;2022-10-31T03:36:51;11.00;84.20
16116;DHT22;8162;47.104;15.432;2022-10-31T03:39:19;10.90;84.50
16116;DHT22;8162;47.104;15.432;2022-10-31T03:41:53;10.90;84.50
16116;DHT22;8162;47.104;15.432;2022-10-31T03:44:21;10.90;84.30
16116;DHT22;8162;47.104;15.432;2022-10-31T03:46:48;10.90;84.60
16116;DHT22;8162;47.104;15.432;2022-10-31T03:49:14;11.00;85.00
16116;DHT22;8162;47.104;15.432;2022-10-31T03:52:08;11.00;85.40
16116;DHT22;8162;47.104;15.432;2022-10-31T03:54:43;11.10;85.70
16116;DHT22;8162;47.104;15.432;2022-10-31T03:57:26;11.20;85.70
16116;DHT22;8162;47.104;15.432;2022-10-31T04:00:22;11.20;85.50
16116;DHT22;8162;47.104;15.432;2022-10-31T04:05:27;11.30;85.20
16116;DHT22;8162;47.104;15.432;2022-10-31T04:07:55;11.30;85.00
16116;DHT22;8162;47.104;15.432;2022-10-31T04:10:23;11.30;84.90
16116;DHT22;8162;47.104;15.432;2022-10-31T04:12:54;11.30;84.90
16116;DHT22;8162;47.104;15.432;2022-10-31T04:15:23;11.30;84.90
16116;DHT22;8162;47.104;15.432;2022-10-31T04:17:50;11.30;84.70
16116;DHT22;8162;47.104;15.432;2022-10-31T04:20:18;11.30;84.60
16116;DHT22;8162;47.104;15.432;2022-10-31T04:22:44;11.30;84.40
16116;DHT22;8162;47.104;15.432;2022-10-31T04:25:10;11.30;84.40
16116;DHT22;8162;47.104;15.432;2022-10-31T04:27:35;11.10;84.40
16116;DHT22;8162;47.104;15.432;2022-10-31T04:30:01;11.00;84.60
16116;DHT22;8162;47.104;15.432;2022-10-31T04:32:27;11.10;84.50
16116;DHT22;8162;47.104;15.432;2022-10-31T04:34:52;11.00;84.30
16116;DHT22;8162;47.104;15.432;2022-10-31T04:37:18;11.00;84.50
16116;DHT22;8162;47.104;15.432;2022-10-31T04:39:43;11.00;84.40
16116;DHT22;8162;47.104;15.432;2022-10-31T04:42:09;11.00;84.40
16116;DHT22;8162;47.104;15.432;2022-10-31T04:44:35;11.00;84.10
16116;DHT22;8162;47.104;15.432;2022-10-31T04:47:00;10.90;84.30
16116;DHT22;8162;47.104;15.432;2022-10-31T04:49:26;10.90;84.40
16116;DHT22;8162;47.104;15.432;2022-10-31T04:51:52;10.90;84.20
16116;DHT22;8162;47.104;15.432;2022-10-31T04:54:17;10.90;84.10
16116;DHT22;8162;47.104;15.432;2022-10-31T04:56:43;10.80;84.30
16116;DHT22;8162;47.104;15.432;2022-10-31T04:59:09;10.80;84.30
16116;DHT22;8162;47.104;15.432;2022-10-31T05:01:34;10.80;84.30
16116;DHT22;8162;47.104;15.432;2022-10-31T05:04:00;10.80;84.20
16116;DHT22;8162;47.104;15.432;2022-10-31T05:06:26;10.80;84.20
16116;DHT22;8162;47.104;15.432;2022-10-31T05:08:51;10.80;84.80
16116;DHT22;8162;47.104;15.432;2022-10-31T05:11:17;10.70;84.80
16116;DHT22;8162;47.104;15.432;2022-10-31T05:13:43;10.70;84.70
16116;DHT22;8162;47.104;15.432;2022-10-31T05:16:08;10.80;85.00
16116;DHT22;8162;47.104;15.432;2022-10-31T05:18:34;10.70;84.60
16116;DHT22;8162;47.104;15.432;2022-10-31T05:21:00;10.70;84.60
16116;DHT22;8162;47.104;15.432;2022-10-31T05:23:25;10.70;84.50
16116;DHT22;8162;47.104;15.432;2022-10-31T05:25:51;10.80;84.50
16116;DHT22;8162;47.104;15.432;2022-10-31T05:28:17;10.80;84.30
16116;DHT22;8162;47.104;15.432;2022-10-31T05:30:42;10.70;84.10
16116;DHT22;8162;47.104;15.432;2022-10-31T05:33:08;10.70;84.20
16116;DHT22;8162;47.104;15.432;2022-10-31T05:35:33;10.80;84.30
16116;DHT22;8162;47.104;15.432;2022-10-31T05:37:59;10.70;84.00
16116;DHT22;8162;47.104;15.432;2022-10-31T05:40:26;10.60;84.30
16116;DHT22;8162;47.104;15.432;2022-10-31T05:42:54;10.50;84.60
16116;DHT22;8162;47.104;15.432;2022-10-31T05:45:21;10.50;85.20
16116;DHT22;8162;47.104;15.432;2022-10-31T05:47:55;10.60;85.10
16116;DHT22;8162;47.104;15.432;2022-10-31T05:50:21;10.70;85.20
16116;DHT22;8162;47.104;15.432;2022-10-31T05:52:53;10.60;84.80
16116;DHT22;8162;47.104;15.432;2022-10-31T05:55:19;10.70;84.90
16116;DHT22;8162;47.104;15.432;2022-10-31T05:57:45;10.80;85.30
16116;DHT22;8162;47.104;15.432;2022-10-31T06:00:11;10.80;84.70
16116;DHT22;8162;47.104;15.432;2022-10-31T06:02:36;10.70;84.60
16116;DHT22;8162;47.104;15.432;2022-10-31T06:05:02;10.70;84.70
16116;DHT22;8162;47.104;15.432;2022-10-31T06:07:35;10.70;84.40
16116;DHT22;8162;47.104;15.432;2022-10-31T06:10:03;10.70;84.50
16116;DHT22;8162;47.104;15.432;2022-10-31T06:12:30;10.70;84.30
16116;DHT22;8162;47.104;15.432;2022-10-31T06:14:55;10.70;84.00
16116;DHT22;8162;47.104;15.432;2022-10-31T06:17:21;10.70;84.40
16116;DHT22;8162;47.104;15.432;2022-10-31T06:19:47;10.70;84.20
16116;DHT22;8162;47.104;15.432;2022-10-31T06:22:13;10.80;84.40
16116;DHT22;8162;47.104;15.432;2022-10-31T06:24:39;10.80;84.60
16116;DHT22;8162;47.104;15.432;2022-10-31T06:27:04;10.80;84.60
16116;DHT22;8162;47.104;15.432;2022-10-31T06:29:30;10.80;84.70
16116;DHT22;8162;47.104;15.432;2022-10-31T06:31:56;10.80;84.50
16116;DHT22;8162;47.104;15.432;2022-10-31T06:34:22;10.90;84.50
16116;DHT22;8162;47.104;15.432;2022-10-31T06:36:47;10.90;84.30
16116;DHT22;8162;47.104;15.432;2022-10-31T06:39:13;10.90;84.50
16116;DHT22;8162;47.104;15.432;2022-10-31T06:41:39;10.80;84.50
16116;DHT22;8162;47.104;15.432;2022-10-31T06:44:07;10.90;84.50
16116;DHT22;8162;47.104;15.432;2022-10-31T06:46:33;10.90;84.70
16116;DHT22;8162;47.104;15.432;2022-10-31T06:48:59;10.90;84.90
16116;DHT22;8162;47.104;15.432;2022-10-31T06:51:25;10.90;85.10
16116;DHT22;8162;47.104;15.432;2022-10-31T06:53:51;11.00;85.20
16116;DHT22;8162;47.104;15.432;2022-10-31T06:56:16;11.00;85.20
16116;DHT22;8162;47.104;15.432;2022-10-31T06:58:42;11.00;85.30
16116;DHT22;8162;47.104;15.432;2022-10-31T07:01:08;11.10;85.30
16116;DHT22;8162;47.104;15.432;2022-10-31T07:03:33;11.10;85.40
16116;DHT22;8162;47.104;15.432;2022-10-31T07:05:59;11.20;85.40
16116;DHT22;8162;47.104;15.432;2022-10-31T07:08:25;11.20;85.40
16116;DHT22;8162;47.104;15.432;2022-10-31T07:10:53;11.20;85.30
16116;DHT22;8162;47.104;15.432;2022-10-31T07:13:19;11.30;85.40
16116;DHT22;8162;47.104;15.432;2022-10-31T07:15:50;11.30;85.50
16116;DHT22;8162;47.104;15.432;2022-10-31T07:18:16;11.40;85.70
16116;DHT22;8162;47.104;15.432;2022-10-31T07:20:42;11.40;85.80
16116;DHT22;8162;47.104;15.432;2022-10-31T07:23:11;11.50;85.80
16116;DHT22;8162;47.104;15.432;2022-10-31T07:25:38;11.60;85.90
16116;DHT22;8162;47.104;15.432;2022-10-31T07:28:04;11.60;85.90
16116;DHT22;8162;47.104;15.432;2022-10-31T07:30:30;11.60;85.90
16116;DHT22;8162;47.104;15.432;2022-10-31T07:32:56;11.70;85.90
16116;DHT22;8162;47.104;15.432;2022-10-31T07:35:24;11.80;85.90
16116;DHT22;8162;47.104;15.432;2022-10-31T07:37:50;11.80;85.90
16116;DHT22;8162;47.104;15.432;2022-10-31T07:40:16;11.80;85.80
16116;DHT22;8162;47.104;15.432;2022-10-31T07:42:47;11.90;85.60
16116;DHT22;8162;47.104;15.432;2022-10-31T07:45:16;12.00;85.50
16116;DHT22;8162;47.104;15.432;2022-10-31T07:47:50;12.00;85.10
16116;DHT22;8162;47.104;15.432;2022-10-31T07:50:21;12.00;85.00
16116;DHT22;8162;47.104;15.432;2022-10-31T07:52:48;12.10;84.80
16116;DHT22;8162;47.104;15.432;2022-10-31T07:55:14;12.10;84.60
16116;DHT22;8162;47.104;15.432;2022-10-31T07:57:40;12.20;84.50
16116;DHT22;8162;47.104;15.432;2022-10-31T08:00:10;12.30;84.00
16116;DHT22;8162;47.104;15.432;2022-10-31T08:02:35;12.30;83.30
16116;DHT22;8162;47.104;15.432;2022-10-31T08:05:01;12.30;82.90
16116;DHT22;8162;47.104;15.432;2022-10-31T08:07:28;12.40;82.60
16116;DHT22;8162;47.104;15.432;2022-10-31T08:09:54;12.40;82.30
16116;DHT22;8162;47.104;15.432;2022-10-31T08:12:20;12.50;82.30
16116;DHT22;8162;47.104;15.432;2022-10-31T08:14:46;12.60;82.20
16116;DHT22;8162;47.104;15.432;2022-10-31T08:17:12;12.60;81.80
16116;DHT22;8162;47.104;15.432;2022-10-31T08:19:37;12.70;81.70
16116;DHT22;8162;47.104;15.432;2022-10-31T08:22:03;12.70;81.80
16116;DHT22;8162;47.104;15.432;2022-10-31T08:24:28;12.80;81.50
16116;DHT22;8162;47.104;15.432;2022-10-31T08:26:54;12.80;81.60
16116;DHT22;8162;47.104;15.432;2022-10-31T08:29:20;12.80;80.90
16116;DHT22;8162;47.104;15.432;2022-10-31T08:31:45;12.90;80.20
16116;DHT22;8162;47.104;15.432;2022-10-31T08:34:11;13.00;80.10
16116;DHT22;8162;47.104;15.432;2022-10-31T08:36:37;13.10;80.10
16116;DHT22;8162;47.104;15.432;2022-10-31T08:39:02;13.20;80.10
16116;DHT22;8162;47.104;15.432;2022-10-31T08:41:29;13.30;80.10
16116;DHT22;8162;47.104;15.432;2022-10-31T08:43:55;13.30;80.00
16116;DHT22;8162;47.104;15.432;2022-10-31T08:46:20;13.30;79.50
16116;DHT22;8162;47.104;15.432;2022-10-31T08:48:49;13.40;79.70
16116;DHT22;8162;47.104;15.432;2022-10-31T08:51:15;13.40;79.80
16116;DHT22;8162;47.104;15.432;2022-10-31T08:53:41;13.50;79.70
16116;DHT22;8162;47.104;15.432;2022-10-31T08:56:07;13.60;79.20
16116;DHT22;8162;47.104;15.432;2022-10-31T08:58:32;13.70;77.90
16116;DHT22;8162;47.104;15.432;2022-10-31T09:01:00;13.80;78.20
16116;DHT22;8162;47.104;15.432;2022-10-31T09:03:28;13.80;78.70
16116;DHT22;8162;47.104;15.432;2022-10-31T09:05:56;13.80;78.10
16116;DHT22;8162;47.104;15.432;2022-10-31T09:08:23;14.00;76.40
16116;DHT22;8162;47.104;15.432;2022-10-31T09:10:48;14.20;76.00
16116;DHT22;8162;47.104;15.432;2022-10-31T09:13:19;14.30;75.80
16116;DHT22;8162;47.104;15.432;2022-10-31T09:15:47;14.40;75.80
16116;DHT22;8162;47.104;15.432;2022-10-31T09:18:15;14.50;75.30
16116;DHT22;8162;47.104;15.432;2022-10-31T09:20:43;14.60;74.80
16116;DHT22;8162;47.104;15.432;2022-10-31T09:23:14;14.80;74.40
16116;DHT22;8162;47.104;15.432;2022-10-31T09:25:41;14.90;74.50
16116;DHT22;8162;47.104;15.432;2022-10-31T09:28:10;15.00;74.20
16116;DHT22;8162;47.104;15.432;2022-10-31T09:30:36;15.00;74.70
16116;DHT22;8162;47.104;15.432;2022-10-31T09:33:11;15.00;74.60
16116;DHT22;8162;47.104;15.432;2022-10-31T09:35:37;15.10;74.90
16116;DHT22;8162;47.104;15.432;2022-10-31T09:38:11;15.00;75.20
16116;DHT22;8162;47.104;15.432;2022-10-31T09:40:38;15.20;75.10
16116;DHT22;8162;47.104;15.432;2022-10-31T09:43:41;15.30;73.90
16116;DHT22;8162;47.104;15.432;2022-10-31T09:47:25;15.40;73.60
16116;DHT22;8162;47.104;15.432;2022-10-31T09:54:38;15.70;72.30
16116;DHT22;8162;47.104;15.432;2022-10-31T09:57:13;16.10;70.40
16116;DHT22;8162;47.104;15.432;2022-10-31T09:59:41;16.10;69.40
16116;DHT22;8162;47.104;15.432;2022-10-31T10:05:04;16.50;68.00
16116;DHT22;8162;47.104;15.432;2022-10-31T10:07:40;16.40;69.10
16116;DHT22;8162;47.104;15.432;2022-10-31T10:10:31;16.30;69.80
16116;DHT22;8162;47.104;15.432;2022-10-31T10:13:09;16.30;69.00
16116;DHT22;8162;47.104;15.432;2022-10-31T10:18:56;16.30;70.40
16116;DHT22;8162;47.104;15.432;2022-10-31T10:32:28;16.90;68.30
16116;DHT22;8162;47.104;15.432;2022-10-31T10:34:59;16.90;67.90
16116;DHT22;8162;47.104;15.432;2022-10-31T10:37:34;17.00;68.60
16116;DHT22;8162;47.104;15.432;2022-10-31T10:40:19;17.10;68.40
16116;DHT22;8162;47.104;15.432;2022-10-31T10:43:22;17.00;70.00
16116;DHT22;8162;47.104;15.432;2022-10-31T10:49:18;17.30;69.20
16116;DHT22;8162;47.104;15.432;2022-10-31T11:00:17;17.70;70.00
16116;DHT22;8162;47.104;15.432;2022-10-31T11:02:43;17.70;69.20
16116;DHT22;8162;47.104;15.432;2022-10-31T11:08:26;17.60;69.80
16116;DHT22;8162;47.104;15.432;2022-10-31T11:13:30;17.80;70.50
16116;DHT22;8162;47.104;15.432;2022-10-31T11:18:54;17.80;69.90
16116;DHT22;8162;47.104;15.432;2022-10-31T11:21:30;17.90;71.50
16116;DHT22;8162;47.104;15.432;2022-10-31T11:24:24;18.10;68.80
16116;DHT22;8162;47.104;15.432;2022-10-31T11:26:49;18.10;69.20
16116;DHT22;8162;47.104;15.432;2022-10-31T11:31:51;18.40;68.90
16116;DHT22;8162;47.104;15.432;2022-10-31T11:34:38;18.70;67.80
16116;DHT22;8162;47.104;15.432;2022-10-31T11:37:16;18.80;67.60
16116;DHT22;8162;47.104;15.432;2022-10-31T11:42:20;19.00;65.50
16116;DHT22;8162;47.104;15.432;2022-10-31T11:44:46;19.30;66.00
16116;DHT22;8162;47.104;15.432;2022-10-31T11:47:15;19.60;66.40
16116;DHT22;8162;47.104;15.432;2022-10-31T11:49:46;19.50;66.30
16116;DHT22;8162;47.104;15.432;2022-10-31T11:57:30;19.80;65.10
16116;DHT22;8162;47.104;15.432;2022-10-31T11:59:58;19.90;64.60
16116;DHT22;8162;47.104;15.432;2022-10-31T12:02:25;20.00;63.60
16116;DHT22;8162;47.104;15.432;2022-10-31T12:07:27;19.90;65.70
16116;DHT22;8162;47.104;15.432;2022-10-31T12:09:52;20.10;64.80
16116;DHT22;8162;47.104;15.432;2022-10-31T12:12:54;20.20;65.10
16116;DHT22;8162;47.104;15.432;2022-10-31T12:15:33;20.30;62.90
16116;DHT22;8162;47.104;15.432;2022-10-31T12:18:42;20.50;62.10
16116;DHT22;8162;47.104;15.432;2022-10-31T12:21:16;20.40;62.30
16116;DHT22;8162;47.104;15.432;2022-10-31T12:26:45;20.70;62.40
16116;DHT22;8162;47.104;15.432;2022-10-31T12:40:35;21.10;61.20
16116;DHT22;8162;47.104;15.432;2022-10-31T12:46:10;21.20;61.90
16116;DHT22;8162;47.104;15.432;2022-10-31T12:59:35;21.30;60.60
16116;DHT22;8162;47.104;15.432;2022-10-31T13:02:18;21.50;59.90
16116;DHT22;8162;47.104;15.432;2022-10-31T13:05:10;21.50;60.30
16116;DHT22;8162;47.104;15.432;2022-10-31T13:07:37;21.60;59.40
16116;DHT22;8162;47.104;15.432;2022-10-31T13:10:25;21.70;58.10
16116;DHT22;8162;47.104;15.432;2022-10-31T13:12:56;21.80;59.30
16116;DHT22;8162;47.104;15.432;2022-10-31T13:15:26;21.80;60.00
16116;DHT22;8162;47.104;15.432;2022-10-31T13:17:58;21.80;59.90
16116;DHT22;8162;47.104;15.432;2022-10-31T13:20:32;21.90;60.10
16116;DHT22;8162;47.104;15.432;2022-10-31T13:23:49;22.00;60.80
16116;DHT22;8162;47.104;15.432;2022-10-31T13:25:54;22.00;57.30
16116;DHT22;8162;47.104;15.432;2022-10-31T13:28:43;22.10;56.60
16116;DHT22;8162;47.104;15.432;2022-10-31T13:31:10;22.50;58.60
16116;DHT22;8162;47.104;15.432;2022-10-31T13:33:44;23.30;58.20
16116;DHT22;8162;47.104;15.432;2022-10-31T13:42:01;25.30;50.80
16116;DHT22;8162;47.104;15.432;2022-10-31T13:44:29;25.40;50.00
16116;DHT22;8162;47.104;15.432;2022-10-31T13:46:58;24.90;48.40
16116;DHT22;8162;47.104;15.432;2022-10-31T13:54:40;24.60;50.80
16116;DHT22;8162;47.104;15.432;2022-10-31T13:59:58;24.20;51.10
16116;DHT22;8162;47.104;15.432;2022-10-31T14:02:30;24.30;50.60
16116;DHT22;8162;47.104;15.432;2022-10-31T14:05:22;24.20;49.70
16116;DHT22;8162;47.104;15.432;2022-10-31T14:07:49;23.70;51.70
16116;DHT22;8162;47.104;15.432;2022-10-31T14:13:34;23.70;53.20
16116;DHT22;8162;47.104;15.432;2022-10-31T14:16:16;23.30;53.50
16116;DHT22;8162;47.104;15.432;2022-10-31T14:19:06;22.80;54.20
16116;DHT22;8162;47.104;15.432;2022-10-31T14:21:47;22.50;55.80
16116;DHT22;8162;47.104;15.432;2022-10-31T14:24:32;22.50;55.10
16116;DHT22;8162;47.104;15.432;2022-10-31T14:29:50;22.20;56.20
16116;DHT22;8162;47.104;15.432;2022-10-31T14:32:24;22.00;56.30
16116;DHT22;8162;47.104;15.432;2022-10-31T14:37:42;22.00;57.90
16116;DHT22;8162;47.104;15.432;2022-10-31T14:45:25;21.80;59.00
16116;DHT22;8162;47.104;15.432;2022-10-31T14:50:50;21.30;59.10
16116;DHT22;8162;47.104;15.432;2022-10-31T14:53:29;21.00;60.70
16116;DHT22;8162;47.104;15.432;2022-10-31T14:55:57;20.80;61.00
16116;DHT22;8162;47.104;15.432;2022-10-31T14:58:38;20.50;61.90
16116;DHT22;8162;47.104;15.432;2022-10-31T15:01:06;20.20;63.30
16116;DHT22;8162;47.104;15.432;2022-10-31T15:03:38;20.20;63.60
16116;DHT22;8162;47.104;15.432;2022-10-31T15:06:10;20.30;63.90
16116;DHT22;8162;47.104;15.432;2022-10-31T15:08:45;20.20;64.20
16116;DHT22;8162;47.104;15.432;2022-10-31T15:11:22;19.80;64.30
16116;DHT22;8162;47.104;15.432;2022-10-31T15:13:59;19.40;65.50
16116;DHT22;8162;47.104;15.432;2022-10-31T15:16:33;19.30;66.10
16116;DHT22;8162;47.104;15.432;2022-10-31T15:19:03;19.20;66.60
16116;DHT22;8162;47.104;15.432;2022-10-31T15:21:30;19.20;66.90
16116;DHT22;8162;47.104;15.432;2022-10-31T15:23:58;19.00;67.50
16116;DHT22;8162;47.104;15.432;2022-10-31T15:26:29;18.90;67.90
16116;DHT22;8162;47.104;15.432;2022-10-31T15:29:01;18.80;68.30
16116;DHT22;8162;47.104;15.432;2022-10-31T15:31:28;18.50;69.00
16116;DHT22;8162;47.104;15.432;2022-10-31T15:33:54;18.30;69.70
16116;DHT22;8162;47.104;15.432;2022-10-31T15:36:26;18.30;69.70
16116;DHT22;8162;47.104;15.432;2022-10-31T15:38:52;18.10;70.30
16116;DHT22;8162;47.104;15.432;2022-10-31T15:41:48;18.10;70.30
16116;DHT22;8162;47.104;15.432;2022-10-31T15:44:35;18.00;70.90
16116;DHT22;8162;47.104;15.432;2022-10-31T15:47:03;17.90;71.00
16116;DHT22;8162;47.104;15.432;2022-10-31T15:49:36;17.80;71.20
16116;DHT22;8162;47.104;15.432;2022-10-31T15:52:16;17.70;71.50
16116;DHT22;8162;47.104;15.432;2022-10-31T15:54:51;17.60;71.70
16116;DHT22;8162;47.104;15.432;2022-10-31T15:57:18;17.40;72.10
16116;DHT22;8162;47.104;15.432;2022-10-31T15:59:48;17.30;72.40
16116;DHT22;8162;47.104;15.432;2022-10-31T16:02:24;17.30;72.60
16116;DHT22;8162;47.104;15.432;2022-10-31T16:04:57;17.30;72.90
16116;DHT22;8162;47.104;15.432;2022-10-31T16:07:23;17.10;73.00
16116;DHT22;8162;47.104;15.432;2022-10-31T16:10:00;17.00;73.20
16116;DHT22;8162;47.104;15.432;2022-10-31T16:12:45;16.90;73.60
16116;DHT22;8162;47.104;15.432;2022-10-31T16:15:14;16.80;74.00
16116;DHT22;8162;47.104;15.432;2022-10-31T16:17:42;16.70;74.30
16116;DHT22;8162;47.104;15.432;2022-10-31T16:20:19;16.60;74.50
16116;DHT22;8162;47.104;15.432;2022-10-31T16:22:49;16.60;74.70
16116;DHT22;8162;47.104;15.432;2022-10-31T16:25:27;16.50;74.90
16116;DHT22;8162;47.104;15.432;2022-10-31T16:27:59;16.50;75.00
16116;DHT22;8162;47.104;15.432;2022-10-31T16:35:50;16.30;75.30
16116;DHT22;8162;47.104;15.432;2022-10-31T16:38:16;16.20;75.20
16116;DHT22;8162;47.104;15.432;2022-10-31T16:40:42;16.10;75.50
16116;DHT22;8162;47.104;15.432;2022-10-31T16:43:12;16.00;75.80
16116;DHT22;8162;47.104;15.432;2022-10-31T16:45:49;16.00;76.00
16116;DHT22;8162;47.104;15.432;2022-10-31T16:48:18;15.90;75.90
16116;DHT22;8162;47.104;15.432;2022-10-31T16:50:45;15.80;76.20
16116;DHT22;8162;47.104;15.432;2022-10-31T16:53:12;15.80;76.10
16116;DHT22;8162;47.104;15.432;2022-10-31T16:55:43;15.70;76.10
16116;DHT22;8162;47.104;15.432;2022-10-31T16:58:24;15.60;76.40
16116;DHT22;8162;47.104;15.432;2022-10-31T17:00:51;15.60;76.60
16116;DHT22;8162;47.104;15.432;2022-10-31T17:03:18;15.50;76.70
16116;DHT22;8162;47.104;15.432;2022-10-31T17:05:44;15.50;77.00
16116;DHT22;8162;47.104;15.432;2022-10-31T17:08:10;15.50;77.00
16116;DHT22;8162;47.104;15.432;2022-10-31T17:10:36;15.40;77.20
16116;DHT22;8162;47.104;15.432;2022-10-31T17:13:03;15.30;77.30
16116;DHT22;8162;47.104;15.432;2022-10-31T17:15:54;15.40;77.40
16116;DHT22;8162;47.104;15.432;2022-10-31T17:18:18;15.30;77.60
16116;DHT22;8162;47.104;15.432;2022-10-31T17:20:44;15.30;77.90
16116;DHT22;8162;47.104;15.432;2022-10-31T17:23:12;15.30;77.90
16116;DHT22;8162;47.104;15.432;2022-10-31T17:25:38;15.20;77.90
16116;DHT22;8162;47.104;15.432;2022-10-31T17:28:04;15.20;78.00
16116;DHT22;8162;47.104;15.432;2022-10-31T17:30:31;15.10;78.10
16116;DHT22;8162;47.104;15.432;2022-10-31T17:32:57;15.10;78.30
16116;DHT22;8162;47.104;15.432;2022-10-31T17:35:23;15.00;78.20
16116;DHT22;8162;47.104;15.432;2022-10-31T17:37:49;15.00;78.30
16116;DHT22;8162;47.104;15.432;2022-10-31T17:40:17;14.90;78.50
16116;DHT22;8162;47.104;15.432;2022-10-31T17:42:54;14.80;78.50
16116;DHT22;8162;47.104;15.432;2022-10-31T17:45:22;14.80;78.80
16116;DHT22;8162;47.104;15.432;2022-10-31T17:47:49;14.80;78.80
16116;DHT22;8162;47.104;15.432;2022-10-31T17:50:17;14.70;78.80
16116;DHT22;8162;47.104;15.432;2022-10-31T17:52:43;14.70;78.90
16116;DHT22;8162;47.104;15.432;2022-10-31T17:55:09;14.60;78.90
16116;DHT22;8162;47.104;15.432;2022-10-31T17:57:36;14.60;78.90
16116;DHT22;8162;47.104;15.432;2022-10-31T18:00:05;14.50;79.20
16116;DHT22;8162;47.104;15.432;2022-10-31T18:02:31;14.30;79.60
16116;DHT22;8162;47.104;15.432;2022-10-31T18:04:57;14.00;80.90
16116;DHT22;8162;47.104;15.432;2022-10-31T18:07:23;14.00;80.80
16116;DHT22;8162;47.104;15.432;2022-10-31T18:09:49;14.10;81.00
16116;DHT22;8162;47.104;15.432;2022-10-31T18:12:15;14.10;80.50
16116;DHT22;8162;47.104;15.432;2022-10-31T18:14:41;14.00;80.70
16116;DHT22;8162;47.104;15.432;2022-10-31T18:17:07;13.90;81.00
16116;DHT22;8162;47.104;15.432;2022-10-31T18:19:33;14.00;80.80
16116;DHT22;8162;47.104;15.432;2022-10-31T18:21:59;13.90;81.00
16116;DHT22;8162;47.104;15.432;2022-10-31T18:24:25;13.90;80.80
16116;DHT22;8162;47.104;15.432;2022-10-31T18:26:53;13.80;81.20
16116;DHT22;8162;47.104;15.432;2022-10-31T18:29:20;13.80;81.00